createdAt,value
2022-08-04T00:03:06.780Z,48.60
2022-08-04T00:06:00.998Z,48.80
2022-08-04T00:08:53.120Z,49.30
2022-08-04T00:11:47.275Z,49.80
2022-08-04T00:14:36.599Z,49.30
2022-08-04T00:17:30.136Z,49.20
2022-08-04T00:20:20.924Z,49.40
2022-08-04T00:23:09.527Z,49.60
2022-08-04T00:25:58.017Z,49.90
2022-08-04T00:28:46.514Z,49.70
2022-08-04T00:31:56.713Z,49.80
2022-08-04T00:34:43.460Z,49.90
2022-08-04T00:37:33.277Z,50.00
2022-08-04T00:40:29.924Z,50.60
2022-08-04T00:43:24.307Z,51.00
2022-08-04T00:46:40.385Z,51.20
2022-08-04T00:50:09.239Z,51.50
2022-08-04T00:53:10.838Z,51.70
2022-08-04T00:56:25.787Z,52.30
2022-08-04T00:59:22.612Z,52.40
2022-08-04T01:02:17.515Z,52.20
2022-08-04T01:05:07.859Z,52.40
2022-08-04T01:08:13.312Z,52.50
2022-08-04T01:11:08.393Z,52.60
2022-08-04T01:14:07.037Z,52.80
2022-08-04T01:17:01.196Z,53.00
2022-08-04T01:20:06.480Z,52.90
2022-08-04T01:23:40.484Z,53.20
2022-08-04T01:26:57.723Z,53.30
2022-08-04T01:29:51.069Z,53.20
2022-08-04T01:32:49.615Z,52.90
2022-08-04T01:35:46.510Z,53.20
2022-08-04T01:38:37.681Z,53.40
2022-08-04T01:41:32.910Z,53.10
2022-08-04T01:44:21.580Z,53.20
2022-08-04T01:47:11.594Z,53.50
2022-08-04T01:50:06.335Z,53.50
2022-08-04T01:52:56.193Z,53.80
2022-08-04T01:55:55.136Z,53.50
2022-08-04T01:58:44.092Z,53.80
2022-08-04T02:01:37.122Z,53.60
2022-08-04T02:04:27.029Z,53.90
2022-08-04T02:07:27.453Z,53.90
2022-08-04T02:10:22.869Z,54.30
2022-08-04T02:13:16.918Z,54.20
2022-08-04T02:16:09.315Z,54.10
2022-08-04T02:19:03.134Z,55.00
2022-08-04T02:21:58.543Z,54.50
2022-08-04T02:24:51.387Z,54.70
2022-08-04T02:28:12.686Z,54.80
2022-08-04T02:31:24.340Z,55.30
2022-08-04T02:34:22.545Z,55.70
2022-08-04T02:37:12.497Z,55.30
2022-08-04T02:40:02.717Z,55.20
2022-08-04T02:42:51.227Z,55.40
2022-08-04T02:45:39.859Z,56.20
2022-08-04T02:48:31.216Z,55.60
2022-08-04T02:51:24.198Z,55.80
2022-08-04T02:54:14.657Z,56.00
2022-08-04T02:57:04.403Z,56.20
2022-08-04T03:00:07.859Z,56.10
2022-08-04T03:03:13.809Z,56.20
2022-08-04T03:06:50.653Z,56.10
2022-08-04T03:10:13.364Z,56.00
2022-08-04T03:13:31.273Z,56.10
2022-08-04T03:17:01.644Z,56.10
2022-08-04T03:20:33.895Z,55.90
2022-08-04T03:24:01.167Z,56.30
2022-08-04T03:27:12.498Z,56.10
2022-08-04T03:30:09.246Z,55.80
2022-08-04T03:33:37.679Z,55.50
2022-08-04T03:36:53.788Z,55.10
2022-08-04T03:40:26.822Z,55.90
2022-08-04T03:44:00.001Z,55.80
2022-08-04T03:47:18.487Z,56.00
2022-08-04T03:50:43.397Z,55.80
2022-08-04T03:53:43.822Z,57.10
2022-08-04T03:57:31.556Z,57.10
2022-08-04T04:00:21.571Z,57.10
2022-08-04T04:03:42.085Z,56.70
2022-08-04T04:07:07.272Z,57.30
2022-08-04T04:10:14.043Z,56.90
2022-08-04T04:13:15.422Z,57.20
2022-08-04T04:16:21.378Z,57.00
2022-08-04T04:19:26.123Z,57.40
2022-08-04T04:22:56.885Z,57.30
2022-08-04T04:25:56.179Z,57.40
2022-08-04T04:28:58.565Z,57.30
2022-08-04T04:32:00.777Z,57.30
2022-08-04T04:34:59.081Z,57.40
2022-08-04T04:38:12.137Z,57.60
2022-08-04T04:41:26.668Z,57.70
2022-08-04T04:44:49.537Z,57.60
2022-08-04T04:48:08.850Z,57.70
2022-08-04T04:51:07.138Z,58.00
2022-08-04T04:54:00.477Z,58.10
2022-08-04T04:56:52.582Z,57.90
2022-08-04T04:59:46.237Z,58.00
2022-08-04T05:03:28.321Z,58.30
2022-08-04T05:06:30.934Z,58.70
2022-08-04T05:09:43.702Z,58.70
2022-08-04T05:14:38.229Z,59.10
2022-08-04T05:16:08.367Z,59.10
2022-08-04T05:19:04.922Z,59.30
2022-08-04T05:22:03.506Z,59.40
2022-08-04T05:24:56.483Z,59.40
2022-08-04T05:27:47.718Z,59.50
2022-08-04T05:30:47.047Z,60.00
2022-08-04T05:33:40.775Z,60.50
2022-08-04T05:36:41.249Z,60.60
2022-08-04T05:39:38.167Z,60.70
2022-08-04T05:42:27.238Z,60.10
2022-08-04T05:45:15.755Z,60.00
2022-08-04T05:48:04.966Z,60.10
2022-08-04T05:50:56.473Z,60.40
2022-08-04T05:53:49.069Z,60.60
2022-08-04T05:56:37.812Z,60.60
2022-08-04T05:59:26.509Z,59.80
2022-08-04T06:02:16.828Z,59.10
2022-08-04T06:05:07.704Z,58.70
2022-08-04T06:08:12.225Z,58.50
2022-08-04T06:11:06.605Z,58.30
2022-08-04T06:13:57.931Z,58.40
2022-08-04T06:16:51.183Z,58.10
2022-08-04T06:19:59.746Z,57.90
2022-08-04T06:22:53.562Z,58.50
2022-08-04T06:25:45.766Z,58.00
2022-08-04T06:28:35.648Z,58.20
2022-08-04T06:32:26.932Z,57.90
2022-08-04T06:34:53.823Z,57.60
2022-08-04T06:37:44.401Z,55.60
2022-08-04T06:40:34.436Z,55.60
2022-08-04T06:43:23.342Z,55.90
2022-08-04T06:46:14.923Z,56.00
2022-08-04T06:49:04.729Z,56.40
2022-08-04T06:51:53.205Z,56.30
2022-08-04T06:54:41.658Z,56.40
2022-08-04T06:57:31.643Z,56.30
2022-08-04T07:00:20.214Z,56.40
2022-08-04T07:03:10.031Z,56.10
2022-08-04T07:05:58.528Z,56.00
2022-08-04T07:08:54.407Z,56.20
2022-08-04T07:11:44.538Z,56.10
2022-08-04T07:14:36.010Z,56.00
2022-08-04T07:17:24.497Z,55.80
2022-08-04T07:20:34.593Z,55.20
2022-08-04T07:23:25.872Z,55.60
2022-08-04T07:26:15.713Z,55.40
2022-08-04T07:29:04.242Z,55.60
2022-08-04T07:31:52.866Z,55.60
2022-08-04T07:34:41.601Z,55.30
2022-08-04T07:37:39.177Z,55.00
2022-08-04T07:40:28.706Z,55.00
2022-08-04T07:43:17.391Z,54.80
2022-08-04T07:46:06.015Z,55.00
2022-08-04T07:48:55.548Z,54.60
2022-08-04T07:51:44.084Z,54.20
2022-08-04T07:54:34.121Z,53.50
2022-08-04T07:57:40.714Z,54.70
2022-08-04T08:00:30.422Z,53.90
2022-08-04T08:03:21.639Z,52.70
2022-08-04T08:06:31.725Z,52.70
2022-08-04T08:09:21.229Z,52.50
2022-08-04T08:12:35.189Z,51.40
2022-08-04T08:15:20.497Z,51.50
2022-08-04T08:18:08.999Z,52.10
2022-08-04T08:20:57.586Z,50.90
2022-08-04T08:23:46.094Z,50.10
2022-08-04T08:26:36.069Z,50.90
2022-08-04T08:29:25.972Z,50.70
2022-08-04T08:32:14.516Z,49.50
2022-08-04T08:35:03.041Z,49.20
2022-08-04T08:37:56.344Z,48.80
2022-08-04T08:40:59.627Z,49.00
2022-08-04T08:44:06.228Z,48.90
2022-08-04T08:47:09.470Z,48.60
2022-08-04T08:50:47.537Z,47.30
2022-08-04T08:54:14.605Z,47.70
2022-08-04T08:57:18.400Z,47.50
2022-08-04T09:00:14.106Z,47.00
2022-08-04T09:03:40.063Z,47.00
2022-08-04T09:06:55.364Z,45.40
2022-08-04T09:09:54.403Z,45.00
2022-08-04T09:12:51.529Z,45.20
2022-08-04T09:15:45.784Z,45.80
2022-08-04T09:18:38.970Z,43.80
2022-08-04T09:21:33.175Z,43.80
2022-08-04T09:24:35.381Z,43.90
2022-08-04T09:27:28.541Z,42.90
2022-08-04T09:30:20.247Z,44.10
2022-08-04T09:33:16.255Z,42.80
2022-08-04T09:36:09.694Z,42.60
2022-08-04T09:39:13.165Z,43.00
2022-08-04T09:42:16.284Z,43.10
2022-08-04T09:45:13.446Z,41.60
2022-08-04T09:48:11.208Z,42.30
2022-08-04T09:51:00.732Z,42.00
2022-08-04T09:53:58.757Z,41.80
2022-08-04T09:56:55.315Z,41.30
2022-08-04T09:59:49.242Z,40.60
2022-08-04T10:02:39.765Z,40.90
2022-08-04T10:05:39.349Z,41.60
2022-08-04T10:08:39.959Z,41.20
2022-08-04T10:11:55.448Z,40.00
2022-08-04T10:14:53.896Z,40.60
2022-08-04T10:18:10.841Z,40.60
2022-08-04T10:21:11.609Z,40.60
2022-08-04T10:24:15.547Z,40.50
2022-08-04T10:27:10.523Z,39.30
2022-08-04T10:30:03.776Z,38.60
2022-08-04T10:32:59.797Z,38.80
2022-08-04T10:35:51.615Z,39.40
2022-08-04T10:38:47.071Z,39.10
2022-08-04T10:41:39.429Z,39.00
2022-08-04T10:44:41.889Z,39.30
2022-08-04T10:47:36.240Z,38.20
2022-08-04T10:50:25.481Z,38.10
2022-08-04T10:53:18.407Z,38.70
2022-08-04T10:56:12.121Z,39.40
2022-08-04T10:59:04.240Z,38.70
2022-08-04T11:02:01.559Z,37.40
2022-08-04T11:04:57.731Z,37.80
2022-08-04T11:07:48.439Z,37.20
2022-08-04T11:10:41.361Z,36.80
2022-08-04T11:13:35.219Z,37.10
2022-08-04T11:16:27.454Z,36.70
2022-08-04T11:19:45.298Z,36.00
2022-08-04T11:22:38.076Z,36.20
2022-08-04T11:25:29.028Z,36.50
2022-08-04T11:28:34.230Z,36.80
2022-08-04T11:31:24.939Z,35.10
2022-08-04T11:34:22.302Z,35.40
2022-08-04T11:37:15.034Z,35.00
2022-08-04T11:40:10.628Z,34.80
2022-08-04T11:43:02.915Z,34.40
2022-08-04T11:45:55.780Z,34.90
2022-08-04T11:48:54.036Z,34.80
2022-08-04T11:51:44.105Z,35.30
2022-08-04T11:54:33.560Z,35.00
2022-08-04T11:57:22.805Z,34.90
2022-08-04T12:00:24.103Z,34.30
2022-08-04T12:03:32.529Z,34.30
2022-08-04T12:06:30.135Z,33.40
2022-08-04T12:09:28.491Z,33.50
2022-08-04T12:12:22.170Z,33.00
2022-08-04T12:15:27.914Z,33.10
2022-08-04T12:18:22.766Z,32.70
2022-08-04T12:21:16.908Z,33.20
2022-08-04T12:24:13.943Z,32.90
2022-08-04T12:27:11.729Z,33.10
2022-08-04T12:30:59.925Z,32.40
2022-08-04T12:33:17.864Z,32.20
2022-08-04T12:36:21.014Z,31.40
2022-08-04T12:39:14.070Z,31.30
2022-08-04T12:42:19.492Z,31.10
2022-08-04T12:45:10.262Z,31.60
2022-08-04T12:48:00.728Z,31.40
2022-08-04T12:50:49.965Z,30.40
2022-08-04T12:53:51.368Z,30.60
2022-08-04T12:56:40.725Z,30.80
2022-08-04T12:59:30.695Z,30.70
2022-08-04T13:02:25.216Z,29.70
2022-08-04T13:05:16.780Z,29.70
2022-08-04T13:08:06.181Z,29.60
2022-08-04T13:10:55.030Z,29.60
2022-08-04T13:13:43.574Z,30.00
2022-08-04T13:16:34.178Z,29.70
2022-08-04T13:19:22.706Z,29.80
2022-08-04T13:22:12.110Z,30.00
2022-08-04T13:26:41.623Z,30.10
2022-08-04T13:28:14.427Z,29.80
2022-08-04T13:31:06.418Z,29.80
2022-08-04T13:34:05.217Z,30.20
2022-08-04T13:36:56.202Z,29.60
2022-08-04T13:39:55.709Z,30.00
2022-08-04T13:42:48.218Z,29.90
2022-08-04T13:45:36.772Z,29.70
2022-08-04T13:48:32.433Z,29.70
2022-08-04T13:51:23.843Z,29.60
2022-08-04T13:54:42.420Z,30.00
2022-08-04T13:57:32.211Z,29.60
2022-08-04T14:00:29.900Z,29.60
2022-08-04T14:03:26.135Z,29.60
2022-08-04T14:06:17.153Z,29.40
2022-08-04T14:09:14.791Z,29.40
2022-08-04T14:12:38.992Z,29.30
2022-08-04T14:16:01.282Z,29.40
2022-08-04T14:19:00.443Z,29.70
2022-08-04T14:21:49.708Z,29.60
2022-08-04T14:24:39.594Z,30.20
2022-08-04T14:27:29.833Z,29.80
2022-08-04T14:30:26.680Z,29.90
2022-08-04T14:34:02.631Z,29.60
2022-08-04T14:36:24.107Z,30.00
2022-08-04T14:39:14.106Z,30.00
2022-08-04T14:42:04.013Z,29.80
2022-08-04T14:44:56.686Z,29.80
2022-08-04T14:47:52.820Z,29.80
2022-08-04T14:50:43.420Z,29.80
2022-08-04T14:53:32.056Z,29.40
2022-08-04T14:56:37.818Z,29.70
2022-08-04T14:59:42.007Z,29.60
2022-08-04T15:02:47.842Z,29.70
2022-08-04T15:06:02.651Z,29.50
2022-08-04T15:08:47.350Z,29.50
2022-08-04T15:11:40.178Z,29.60
2022-08-04T15:14:37.670Z,29.60
2022-08-04T15:17:29.926Z,29.60
2022-08-04T15:20:18.883Z,29.60
2022-08-04T15:23:10.788Z,29.50
2022-08-04T15:26:01.538Z,29.40
2022-08-04T15:28:52.829Z,29.60
2022-08-04T15:32:07.330Z,29.70
2022-08-04T15:34:53.128Z,29.50
2022-08-04T15:37:50.506Z,29.20
2022-08-04T15:40:46.724Z,29.30
2022-08-04T15:43:55.392Z,29.30
2022-08-04T15:47:13.391Z,29.30
2022-08-04T15:50:10.045Z,29.30
2022-08-04T15:53:10.422Z,29.20
2022-08-04T15:56:01.715Z,29.40
2022-08-04T15:58:52.828Z,29.20
2022-08-04T16:01:41.561Z,29.30
2022-08-04T16:04:52.248Z,29.30
2022-08-04T16:07:56.680Z,29.10
2022-08-04T16:10:49.879Z,29.20
2022-08-04T16:13:38.351Z,29.20
2022-08-04T16:16:28.538Z,29.30
2022-08-04T16:19:35.205Z,29.10
2022-08-04T16:22:37.861Z,29.30
2022-08-04T16:25:46.453Z,29.30
2022-08-04T16:28:40.404Z,29.50
2022-08-04T16:31:28.909Z,29.50
2022-08-04T16:34:48.457Z,29.60
2022-08-04T16:37:35.903Z,29.70
2022-08-04T16:40:38.557Z,29.60
2022-08-04T16:43:29.649Z,29.60
2022-08-04T16:46:41.236Z,29.50
2022-08-04T16:49:51.920Z,29.60
2022-08-04T16:52:45.185Z,29.60
2022-08-04T16:55:33.636Z,30.00
2022-08-04T16:58:32.928Z,29.90
2022-08-04T17:01:33.678Z,29.80
2022-08-04T17:04:29.967Z,29.90
2022-08-04T17:07:18.484Z,29.60
2022-08-04T17:10:09.279Z,29.40
2022-08-04T17:13:20.652Z,29.90
2022-08-04T17:16:13.125Z,29.70
2022-08-04T17:19:02.445Z,30.10
2022-08-04T17:21:50.889Z,29.90
2022-08-04T17:24:40.709Z,29.80
2022-08-04T17:28:19.192Z,30.40
2022-08-04T17:30:39.671Z,30.00
2022-08-04T17:33:54.299Z,29.90
2022-08-04T17:36:44.002Z,30.00
2022-08-04T17:39:34.980Z,29.90
2022-08-04T17:42:35.499Z,30.70
2022-08-04T17:45:50.675Z,31.80
2022-08-04T17:48:33.694Z,31.10
2022-08-04T17:52:05.606Z,31.80
2022-08-04T17:54:37.104Z,32.70
2022-08-04T17:57:28.104Z,32.90
2022-08-04T18:00:19.686Z,33.10
2022-08-04T18:03:08.508Z,33.80
2022-08-04T18:06:03.353Z,34.20
2022-08-04T18:08:58.779Z,34.20
2022-08-04T18:11:57.798Z,34.70
2022-08-04T18:14:49.134Z,34.90
2022-08-04T18:18:20.776Z,35.10
2022-08-04T18:20:49.967Z,35.30
2022-08-04T18:23:50.534Z,35.50
2022-08-04T18:26:40.059Z,36.10
2022-08-04T18:29:31.872Z,36.30
2022-08-04T18:32:23.855Z,36.70
2022-08-04T18:35:23.689Z,36.80
2022-08-04T18:38:32.122Z,37.50
2022-08-04T18:41:20.619Z,37.50
2022-08-04T18:44:09.169Z,38.00
2022-08-04T18:51:00.120Z,38.20
2022-08-04T18:53:20.517Z,38.10
2022-08-04T18:56:19.996Z,38.80
2022-08-04T18:59:17.708Z,38.90
2022-08-04T19:02:16.732Z,39.40
2022-08-04T19:05:06.539Z,39.80
2022-08-04T19:08:02.394Z,40.30
2022-08-04T19:11:01.577Z,40.50
2022-08-04T19:14:13.691Z,40.60
2022-08-04T19:17:02.424Z,40.50
2022-08-04T19:20:02.943Z,40.80
2022-08-04T19:24:27.077Z,40.80
2022-08-04T19:26:04.968Z,41.40
2022-08-04T19:28:56.868Z,41.70
2022-08-04T19:31:45.371Z,41.00
2022-08-04T19:34:35.070Z,41.60
2022-08-04T19:37:55.953Z,41.90
2022-08-04T19:40:32.775Z,41.60
2022-08-04T19:43:23.934Z,41.30
2022-08-04T19:46:12.609Z,41.60
2022-08-04T19:49:01.285Z,41.50
2022-08-04T19:51:51.803Z,41.90
2022-08-04T19:54:43.227Z,41.70
2022-08-04T19:57:41.323Z,42.40
2022-08-04T20:00:33.731Z,42.40
2022-08-04T20:03:23.004Z,42.50
2022-08-04T20:06:31.499Z,42.50
2022-08-04T20:09:25.859Z,42.50
2022-08-04T20:12:15.409Z,42.60
2022-08-04T20:15:04.447Z,42.90
2022-08-04T20:18:07.514Z,42.50
2022-08-04T20:21:02.825Z,42.60
2022-08-04T20:23:51.356Z,42.60
2022-08-04T20:26:39.894Z,42.90
2022-08-04T20:29:40.198Z,43.30
2022-08-04T20:32:29.703Z,43.50
2022-08-04T20:35:19.736Z,43.30
2022-08-04T20:38:08.257Z,43.90
2022-08-04T20:41:18.939Z,43.60
2022-08-04T20:44:10.779Z,43.70
2022-08-04T20:46:59.520Z,44.40
2022-08-04T20:49:50.197Z,44.50
2022-08-04T20:52:42.090Z,44.50
2022-08-04T20:55:30.624Z,44.80
2022-08-04T20:58:19.114Z,44.90
2022-08-04T21:01:15.861Z,45.10
2022-08-04T21:04:28.286Z,45.20
2022-08-04T21:07:17.768Z,45.00
2022-08-04T21:10:08.875Z,45.00
2022-08-04T21:12:57.376Z,44.90
2022-08-04T21:15:57.832Z,44.90
2022-08-04T21:18:47.408Z,45.00
2022-08-04T21:21:38.060Z,44.90
2022-08-04T21:24:27.123Z,44.70
2022-08-04T21:27:17.049Z,44.60
2022-08-04T21:30:08.876Z,45.00
2022-08-04T21:33:12.853Z,45.30
2022-08-04T21:36:03.163Z,45.40
2022-08-04T21:38:52.481Z,45.40
2022-08-04T21:42:10.213Z,45.90
2022-08-04T21:44:51.457Z,45.70
2022-08-04T21:47:46.687Z,45.70
2022-08-04T21:50:38.299Z,45.90
2022-08-04T21:53:30.281Z,46.00
2022-08-04T21:56:18.859Z,46.10
2022-08-04T21:59:15.312Z,46.20
2022-08-04T22:02:05.486Z,46.60
2022-08-04T22:04:56.510Z,46.10
2022-08-04T22:07:50.371Z,46.10
2022-08-04T22:10:40.161Z,46.10
2022-08-04T22:13:52.640Z,46.00
2022-08-04T22:16:41.429Z,46.20
2022-08-04T22:19:50.789Z,46.40
2022-08-04T22:22:41.040Z,46.40
2022-08-04T22:25:31.368Z,46.20
2022-08-04T22:28:19.916Z,47.00
2022-08-04T22:31:23.769Z,47.00
2022-08-04T22:34:12.975Z,47.10
2022-08-04T22:37:02.817Z,46.80
2022-08-04T22:40:01.074Z,46.90
2022-08-04T22:42:50.280Z,46.60
2022-08-04T22:45:45.169Z,46.70
2022-08-04T22:48:34.314Z,47.20
2022-08-04T22:51:23.066Z,47.00
2022-08-04T22:54:17.269Z,47.00
2022-08-04T22:57:06.222Z,47.00
2022-08-04T22:59:56.710Z,47.10
2022-08-04T23:02:49.554Z,47.20
2022-08-04T23:05:38.267Z,47.40
2022-08-04T23:08:26.798Z,47.70
2022-08-04T23:11:20.807Z,47.70
2022-08-04T23:14:09.267Z,47.70
2022-08-04T23:16:57.753Z,47.70
2022-08-04T23:19:57.624Z,47.90
2022-08-04T23:22:47.409Z,47.90
2022-08-04T23:26:08.338Z,48.10
2022-08-04T23:28:56.392Z,48.40
2022-08-04T23:31:59.034Z,48.50
2022-08-04T23:34:49.074Z,48.60
2022-08-04T23:37:37.627Z,48.60
2022-08-04T23:40:50.292Z,48.80
2022-08-04T23:43:55.153Z,48.80
2022-08-04T23:46:45.370Z,48.90
2022-08-04T23:49:44.559Z,49.30
2022-08-04T23:52:33.803Z,49.70
2022-08-04T23:55:23.125Z,50.40
2022-08-04T23:58:18.604Z,51.10
